sensor_id;sensor_type;location;lat;lon;timestamp;pressure;altitude;pressure_sealevel;temperature;humidity
21096;BME280;10706;49.036;12.112;2023-05-20T00:01:08;97854.53;;;12.76;84.57
21096;BME280;10706;49.036;12.112;2023-05-20T00:03:33;97859.25;;;12.69;84.50
21096;BME280;10706;49.036;12.112;2023-05-20T00:05:59;97862.66;;;12.64;84.83
21096;BME280;10706;49.036;12.112;2023-05-20T00:08:25;97867.44;;;12.62;85.12
21096;BME280;10706;49.036;12.112;2023-05-20T00:10:51;97865.09;;;12.66;85.17
21096;BME280;10706;49.036;12.112;2023-05-20T00:13:16;97866.56;;;12.57;84.96
21096;BME280;10706;49.036;12.112;2023-05-20T00:15:42;97853.16;;;12.57;85.22
21096;BME280;10706;49.036;12.112;2023-05-20T00:18:08;97858.53;;;12.57;85.15
21096;BME280;10706;49.036;12.112;2023-05-20T00:20:33;97858.22;;;12.53;85.60
21096;BME280;10706;49.036;12.112;2023-05-20T00:22:59;97855.94;;;12.45;85.85
21096;BME280;10706;49.036;12.112;2023-05-20T00:25:25;97845.00;;;12.47;85.59
21096;BME280;10706;49.036;12.112;2023-05-20T00:27:51;97846.28;;;12.44;86.20
21096;BME280;10706;49.036;12.112;2023-05-20T00:30:16;97843.84;;;12.42;86.26
21096;BME280;10706;49.036;12.112;2023-05-20T00:32:42;97839.72;;;12.35;85.92
21096;BME280;10706;49.036;12.112;2023-05-20T00:35:08;97841.00;;;12.32;86.12
21096;BME280;10706;49.036;12.112;2023-05-20T00:37:35;97841.50;;;12.29;86.51
21096;BME280;10706;49.036;12.112;2023-05-20T00:40:01;97840.59;;;12.23;86.72
21096;BME280;10706;49.036;12.112;2023-05-20T00:42:27;97833.06;;;12.20;87.25
21096;BME280;10706;49.036;12.112;2023-05-20T00:44:54;97831.63;;;12.13;87.21
21096;BME280;10706;49.036;12.112;2023-05-20T00:47:31;97827.78;;;12.09;87.80
21096;BME280;10706;49.036;12.112;2023-05-20T00:49:57;97817.06;;;12.09;87.86
21096;BME280;10706;49.036;12.112;2023-05-20T00:52:24;97828.19;;;12.00;88.19
21096;BME280;10706;49.036;12.112;2023-05-20T00:54:51;97825.84;;;12.04;87.91
21096;BME280;10706;49.036;12.112;2023-05-20T00:57:18;97829.16;;;11.94;88.19
21096;BME280;10706;49.036;12.112;2023-05-20T00:59:45;97837.75;;;11.96;88.37
21096;BME280;10706;49.036;12.112;2023-05-20T01:02:11;97824.28;;;11.91;88.35
21096;BME280;10706;49.036;12.112;2023-05-20T01:04:37;97826.19;;;11.79;88.93
21096;BME280;10706;49.036;12.112;2023-05-20T01:07:04;97832.53;;;11.90;88.36
21096;BME280;10706;49.036;12.112;2023-05-20T01:09:31;97830.09;;;11.88;88.32
21096;BME280;10706;49.036;12.112;2023-05-20T01:12:24;97818.81;;;11.86;88.90
21096;BME280;10706;49.036;12.112;2023-05-20T01:14:58;97818.41;;;11.77;89.46
21096;BME280;10706;49.036;12.112;2023-05-20T01:17:29;97822.44;;;11.80;89.33
21096;BME280;10706;49.036;12.112;2023-05-20T01:19:58;97817.25;;;11.73;88.70
21096;BME280;10706;49.036;12.112;2023-05-20T01:22:27;97817.56;;;11.77;89.35
21096;BME280;10706;49.036;12.112;2023-05-20T01:24:53;97812.09;;;11.83;89.20
21096;BME280;10706;49.036;12.112;2023-05-20T01:27:20;97815.22;;;11.80;89.29
21096;BME280;10706;49.036;12.112;2023-05-20T01:29:49;97811.19;;;11.78;89.10
21096;BME280;10706;49.036;12.112;2023-05-20T01:34:50;97810.38;;;11.77;89.19
21096;BME280;10706;49.036;12.112;2023-05-20T01:37:18;97810.78;;;11.86;88.66
21096;BME280;10706;49.036;12.112;2023-05-20T01:39:46;97807.06;;;11.87;88.20
21096;BME280;10706;49.036;12.112;2023-05-20T01:42:13;97809.03;;;11.92;88.29
21096;BME280;10706;49.036;12.112;2023-05-20T01:44:40;97808.69;;;11.88;88.52
21096;BME280;10706;49.036;12.112;2023-05-20T01:47:06;97807.75;;;11.94;88.25
21096;BME280;10706;49.036;12.112;2023-05-20T01:49:32;97805.78;;;11.90;88.62
21096;BME280;10706;49.036;12.112;2023-05-20T01:51:57;97800.44;;;11.90;88.04
21096;BME280;10706;49.036;12.112;2023-05-20T01:54:23;97795.56;;;11.86;88.25
21096;BME280;10706;49.036;12.112;2023-05-20T01:56:49;97798.31;;;11.92;88.31
21096;BME280;10706;49.036;12.112;2023-05-20T01:59:15;97796.03;;;11.83;88.72
21096;BME280;10706;49.036;12.112;2023-05-20T02:01:41;97791.75;;;11.82;88.93
21096;BME280;10706;49.036;12.112;2023-05-20T02:04:07;97796.50;;;11.80;88.74
21096;BME280;10706;49.036;12.112;2023-05-20T02:06:33;97798.28;;;11.75;89.00
21096;BME280;10706;49.036;12.112;2023-05-20T02:08:58;97805.84;;;11.78;88.74
21096;BME280;10706;49.036;12.112;2023-05-20T02:11:24;97796.16;;;11.77;89.13
21096;BME280;10706;49.036;12.112;2023-05-20T02:13:50;97792.28;;;11.67;89.76
21096;BME280;10706;49.036;12.112;2023-05-20T02:16:17;97798.78;;;11.72;89.33
21096;BME280;10706;49.036;12.112;2023-05-20T02:18:42;97801.28;;;11.78;89.26
21096;BME280;10706;49.036;12.112;2023-05-20T02:21:09;97797.47;;;11.74;89.40
21096;BME280;10706;49.036;12.112;2023-05-20T02:23:34;97799.59;;;11.72;89.78
21096;BME280;10706;49.036;12.112;2023-05-20T02:26:01;97797.47;;;11.74;88.45
21096;BME280;10706;49.036;12.112;2023-05-20T02:28:27;97792.94;;;11.75;89.40
21096;BME280;10706;49.036;12.112;2023-05-20T02:30:53;97796.34;;;11.70;90.16
21096;BME280;10706;49.036;12.112;2023-05-20T02:33:19;97793.91;;;11.68;89.17
21096;BME280;10706;49.036;12.112;2023-05-20T02:35:45;97785.06;;;11.68;89.58
21096;BME280;10706;49.036;12.112;2023-05-20T02:38:14;97783.19;;;11.68;89.68
21096;BME280;10706;49.036;12.112;2023-05-20T02:40:46;97790.66;;;11.66;90.02
21096;BME280;10706;49.036;12.112;2023-05-20T02:43:11;97798.25;;;11.58;90.47
21096;BME280;10706;49.036;12.112;2023-05-20T02:45:37;97787.41;;;11.64;90.11
21096;BME280;10706;49.036;12.112;2023-05-20T02:48:03;97793.56;;;11.65;89.92
21096;BME280;10706;49.036;12.112;2023-05-20T02:50:29;97803.00;;;11.67;90.66
21096;BME280;10706;49.036;12.112;2023-05-20T02:52:54;97797.22;;;11.59;90.00
21096;BME280;10706;49.036;12.112;2023-05-20T02:55:20;97797.44;;;11.57;90.93
21096;BME280;10706;49.036;12.112;2023-05-20T02:57:46;97802.63;;;11.47;91.36
21096;BME280;10706;49.036;12.112;2023-05-20T03:00:12;97798.31;;;11.46;90.91
21096;BME280;10706;49.036;12.112;2023-05-20T03:02:38;97796.09;;;11.43;91.32
21096;BME280;10706;49.036;12.112;2023-05-20T03:05:04;97800.41;;;11.44;91.96
21096;BME280;10706;49.036;12.112;2023-05-20T03:07:33;97802.06;;;11.45;92.04
21096;BME280;10706;49.036;12.112;2023-05-20T03:09:58;97804.06;;;11.38;92.34
21096;BME280;10706;49.036;12.112;2023-05-20T03:12:24;97799.97;;;11.35;92.82
21096;BME280;10706;49.036;12.112;2023-05-20T03:14:51;97802.31;;;11.32;92.22
21096;BME280;10706;49.036;12.112;2023-05-20T03:17:21;97797.56;;;11.34;92.31
21096;BME280;10706;49.036;12.112;2023-05-20T03:19:46;97796.16;;;11.31;92.58
21096;BME280;10706;49.036;12.112;2023-05-20T03:22:12;97802.00;;;11.28;92.77
21096;BME280;10706;49.036;12.112;2023-05-20T03:24:38;97794.28;;;11.32;93.85
21096;BME280;10706;49.036;12.112;2023-05-20T03:27:05;97801.84;;;11.35;93.01
21096;BME280;10706;49.036;12.112;2023-05-20T03:29:31;97805.13;;;11.54;92.38
21096;BME280;10706;49.036;12.112;2023-05-20T03:31:58;97804.22;;;11.48;92.05
21096;BME280;10706;49.036;12.112;2023-05-20T03:34:24;97804.97;;;11.43;92.53
21096;BME280;10706;49.036;12.112;2023-05-20T03:36:52;97807.63;;;11.43;93.35
21096;BME280;10706;49.036;12.112;2023-05-20T03:39:18;97799.38;;;11.45;92.97
21096;BME280;10706;49.036;12.112;2023-05-20T03:41:43;97795.75;;;11.51;92.02
21096;BME280;10706;49.036;12.112;2023-05-20T03:44:09;97800.78;;;11.64;91.38
21096;BME280;10706;49.036;12.112;2023-05-20T03:46:35;97788.72;;;11.62;91.88
21096;BME280;10706;49.036;12.112;2023-05-20T03:49:01;97796.53;;;11.52;92.45
21096;BME280;10706;49.036;12.112;2023-05-20T03:51:27;97798.97;;;11.53;92.93
21096;BME280;10706;49.036;12.112;2023-05-20T03:53:53;97794.31;;;11.60;92.29
21096;BME280;10706;49.036;12.112;2023-05-20T03:56:18;97797.66;;;11.67;92.09
21096;BME280;10706;49.036;12.112;2023-05-20T03:58:44;97797.94;;;11.71;91.62
21096;BME280;10706;49.036;12.112;2023-05-20T04:01:10;97802.69;;;11.81;91.01
21096;BME280;10706;49.036;12.112;2023-05-20T04:03:39;97800.06;;;11.86;90.71
21096;BME280;10706;49.036;12.112;2023-05-20T04:06:06;97798.13;;;11.81;91.11
21096;BME280;10706;49.036;12.112;2023-05-20T04:08:32;97798.81;;;11.89;91.00
21096;BME280;10706;49.036;12.112;2023-05-20T04:11:01;97802.22;;;12.01;89.93
21096;BME280;10706;49.036;12.112;2023-05-20T04:13:27;97797.63;;;11.96;90.20
21096;BME280;10706;49.036;12.112;2023-05-20T04:15:53;97796.41;;;12.04;89.64
21096;BME280;10706;49.036;12.112;2023-05-20T04:18:19;97798.41;;;11.97;90.71
21096;BME280;10706;49.036;12.112;2023-05-20T04:20:46;97791.38;;;12.08;89.96
21096;BME280;10706;49.036;12.112;2023-05-20T04:23:12;97795.41;;;12.10;90.37
21096;BME280;10706;49.036;12.112;2023-05-20T04:25:38;97797.19;;;12.04;90.15
21096;BME280;10706;49.036;12.112;2023-05-20T04:28:05;97800.63;;;12.00;90.90
21096;BME280;10706;49.036;12.112;2023-05-20T04:30:31;97799.81;;;11.99;90.56
21096;BME280;10706;49.036;12.112;2023-05-20T04:32:58;97797.72;;;12.01;90.45
21096;BME280;10706;49.036;12.112;2023-05-20T04:35:27;97800.13;;;12.03;90.28
21096;BME280;10706;49.036;12.112;2023-05-20T04:37:54;97796.63;;;12.19;89.50
21096;BME280;10706;49.036;12.112;2023-05-20T04:40:20;97807.59;;;12.18;89.60
21096;BME280;10706;49.036;12.112;2023-05-20T04:42:47;97807.75;;;12.11;90.32
21096;BME280;10706;49.036;12.112;2023-05-20T04:45:13;97798.84;;;12.22;89.87
21096;BME280;10706;49.036;12.112;2023-05-20T04:47:39;97800.78;;;12.27;90.06
21096;BME280;10706;49.036;12.112;2023-05-20T04:50:09;97797.84;;;12.29;89.53
21096;BME280;10706;49.036;12.112;2023-05-20T04:52:36;97804.28;;;12.28;89.64
21096;BME280;10706;49.036;12.112;2023-05-20T04:55:05;97792.16;;;12.25;89.70
21096;BME280;10706;49.036;12.112;2023-05-20T04:57:31;97796.06;;;12.34;88.97
21096;BME280;10706;49.036;12.112;2023-05-20T04:59:59;97794.47;;;12.33;89.34
21096;BME280;10706;49.036;12.112;2023-05-20T05:02:25;97786.44;;;12.33;89.62
21096;BME280;10706;49.036;12.112;2023-05-20T05:04:51;97790.03;;;12.44;89.76
21096;BME280;10706;49.036;12.112;2023-05-20T05:07:16;97786.09;;;12.47;89.39
21096;BME280;10706;49.036;12.112;2023-05-20T05:09:42;97794.88;;;12.64;88.82
21096;BME280;10706;49.036;12.112;2023-05-20T05:12:08;97792.28;;;12.69;88.40
21096;BME280;10706;49.036;12.112;2023-05-20T05:14:33;97796.66;;;12.75;87.94
21096;BME280;10706;49.036;12.112;2023-05-20T05:16:59;97795.41;;;12.83;87.24
21096;BME280;10706;49.036;12.112;2023-05-20T05:19:25;97797.16;;;12.94;86.79
21096;BME280;10706;49.036;12.112;2023-05-20T05:21:50;97799.16;;;13.04;86.13
21096;BME280;10706;49.036;12.112;2023-05-20T05:24:16;97801.91;;;13.09;86.62
21096;BME280;10706;49.036;12.112;2023-05-20T05:26:42;97794.25;;;13.18;86.66
21096;BME280;10706;49.036;12.112;2023-05-20T05:29:08;97803.09;;;13.40;85.38
21096;BME280;10706;49.036;12.112;2023-05-20T05:31:33;97789.16;;;13.44;85.11
21096;BME280;10706;49.036;12.112;2023-05-20T05:33:59;97798.25;;;13.65;83.56
21096;BME280;10706;49.036;12.112;2023-05-20T05:36:25;97791.91;;;13.76;82.80
21096;BME280;10706;49.036;12.112;2023-05-20T05:38:51;97793.81;;;13.80;83.50
21096;BME280;10706;49.036;12.112;2023-05-20T05:41:17;97779.22;;;13.98;81.65
21096;BME280;10706;49.036;12.112;2023-05-20T05:43:43;97785.41;;;13.99;80.64
21096;BME280;10706;49.036;12.112;2023-05-20T05:46:08;97782.59;;;13.84;81.81
21096;BME280;10706;49.036;12.112;2023-05-20T05:48:35;97792.63;;;13.66;82.77
21096;BME280;10706;49.036;12.112;2023-05-20T05:51:01;97776.78;;;13.65;83.45
21096;BME280;10706;49.036;12.112;2023-05-20T05:53:27;97782.84;;;13.55;83.76
21096;BME280;10706;49.036;12.112;2023-05-20T05:55:53;97772.00;;;13.72;82.83
21096;BME280;10706;49.036;12.112;2023-05-20T05:58:19;97771.69;;;13.95;81.48
21096;BME280;10706;49.036;12.112;2023-05-20T06:00:45;97774.78;;;14.14;80.79
21096;BME280;10706;49.036;12.112;2023-05-20T06:03:11;97771.69;;;14.33;79.98
21096;BME280;10706;49.036;12.112;2023-05-20T06:05:36;97765.88;;;14.46;79.47
21096;BME280;10706;49.036;12.112;2023-05-20T06:08:02;97766.19;;;14.55;79.17
21096;BME280;10706;49.036;12.112;2023-05-20T06:10:28;97771.66;;;14.65;79.46
21096;BME280;10706;49.036;12.112;2023-05-20T06:12:53;97762.59;;;14.82;78.20
21096;BME280;10706;49.036;12.112;2023-05-20T06:15:19;97769.38;;;14.94;76.93
21096;BME280;10706;49.036;12.112;2023-05-20T06:17:45;97775.81;;;14.93;77.28
21096;BME280;10706;49.036;12.112;2023-05-20T06:20:11;97769.13;;;15.01;76.97
21096;BME280;10706;49.036;12.112;2023-05-20T06:22:37;97772.13;;;15.10;76.07
21096;BME280;10706;49.036;12.112;2023-05-20T06:25:04;97771.66;;;15.28;75.58
21096;BME280;10706;49.036;12.112;2023-05-20T06:27:31;97764.41;;;15.39;75.73
21096;BME280;10706;49.036;12.112;2023-05-20T06:29:57;97771.97;;;15.58;74.89
21096;BME280;10706;49.036;12.112;2023-05-20T06:32:22;97760.16;;;15.64;74.43
21096;BME280;10706;49.036;12.112;2023-05-20T06:34:48;97763.66;;;15.64;75.30
21096;BME280;10706;49.036;12.112;2023-05-20T06:37:14;97760.22;;;15.84;73.83
21096;BME280;10706;49.036;12.112;2023-05-20T06:39:40;97761.00;;;15.90;73.53
21096;BME280;10706;49.036;12.112;2023-05-20T06:42:06;97761.00;;;15.95;73.56
21096;BME280;10706;49.036;12.112;2023-05-20T06:44:32;97758.03;;;16.02;72.74
21096;BME280;10706;49.036;12.112;2023-05-20T06:46:58;97756.69;;;16.09;73.65
21096;BME280;10706;49.036;12.112;2023-05-20T06:49:23;97764.78;;;16.15;72.75
21096;BME280;10706;49.036;12.112;2023-05-20T06:51:49;97763.16;;;16.24;71.75
21096;BME280;10706;49.036;12.112;2023-05-20T06:54:15;97753.44;;;16.23;71.24
21096;BME280;10706;49.036;12.112;2023-05-20T06:56:41;97754.78;;;16.41;71.09
21096;BME280;10706;49.036;12.112;2023-05-20T06:59:06;97750.41;;;16.55;70.18
21096;BME280;10706;49.036;12.112;2023-05-20T07:01:32;97752.31;;;16.49;71.01
21096;BME280;10706;49.036;12.112;2023-05-20T07:03:58;97754.47;;;16.58;69.64
21096;BME280;10706;49.036;12.112;2023-05-20T07:06:23;97749.28;;;16.82;68.93
21096;BME280;10706;49.036;12.112;2023-05-20T07:08:49;97759.78;;;16.88;68.75
21096;BME280;10706;49.036;12.112;2023-05-20T07:11:15;97747.13;;;16.84;69.10
21096;BME280;10706;49.036;12.112;2023-05-20T07:13:41;97743.56;;;16.99;68.72
21096;BME280;10706;49.036;12.112;2023-05-20T07:16:06;97745.06;;;17.20;67.21
21096;BME280;10706;49.036;12.112;2023-05-20T07:18:32;97745.03;;;17.31;66.41
21096;BME280;10706;49.036;12.112;2023-05-20T07:20:58;97750.66;;;17.34;67.78
21096;BME280;10706;49.036;12.112;2023-05-20T07:23:23;97748.78;;;17.35;66.56
21096;BME280;10706;49.036;12.112;2023-05-20T07:25:49;97749.22;;;17.47;66.92
21096;BME280;10706;49.036;12.112;2023-05-20T07:28:16;97744.88;;;17.51;67.81
21096;BME280;10706;49.036;12.112;2023-05-20T07:30:44;97738.53;;;17.76;65.86
21096;BME280;10706;49.036;12.112;2023-05-20T07:33:16;97737.09;;;17.89;68.75
21096;BME280;10706;49.036;12.112;2023-05-20T07:35:43;97732.72;;;17.98;64.94
21096;BME280;10706;49.036;12.112;2023-05-20T07:38:10;97736.94;;;18.10;65.66
21096;BME280;10706;49.036;12.112;2023-05-20T07:40:40;97729.81;;;18.19;63.59
21096;BME280;10706;49.036;12.112;2023-05-20T07:43:07;97729.47;;;18.25;62.86
21096;BME280;10706;49.036;12.112;2023-05-20T07:45:36;97732.09;;;18.36;62.78
21096;BME280;10706;49.036;12.112;2023-05-20T07:48:03;97720.06;;;18.47;60.61
21096;BME280;10706;49.036;12.112;2023-05-20T07:50:29;97729.50;;;18.50;60.75
21096;BME280;10706;49.036;12.112;2023-05-20T07:52:55;97723.69;;;18.61;58.78
21096;BME280;10706;49.036;12.112;2023-05-20T07:55:21;97728.47;;;18.70;59.82
21096;BME280;10706;49.036;12.112;2023-05-20T07:57:47;97729.69;;;18.82;58.95
21096;BME280;10706;49.036;12.112;2023-05-20T08:00:13;97730.38;;;18.93;57.47
21096;BME280;10706;49.036;12.112;2023-05-20T08:02:39;97719.22;;;19.00;56.88
21096;BME280;10706;49.036;12.112;2023-05-20T08:05:05;97717.13;;;18.92;56.86
21096;BME280;10706;49.036;12.112;2023-05-20T08:08:42;97716.22;;;19.01;58.76
21096;BME280;10706;49.036;12.112;2023-05-20T08:11:08;97720.75;;;19.06;55.89
21096;BME280;10706;49.036;12.112;2023-05-20T08:13:34;97716.00;;;19.17;57.60
21096;BME280;10706;49.036;12.112;2023-05-20T08:16:01;97720.03;;;19.38;59.50
21096;BME280;10706;49.036;12.112;2023-05-20T08:18:28;97715.22;;;19.54;58.21
21096;BME280;10706;49.036;12.112;2023-05-20T08:20:54;97719.97;;;19.43;59.47
21096;BME280;10706;49.036;12.112;2023-05-20T08:23:20;97704.44;;;19.49;60.04
21096;BME280;10706;49.036;12.112;2023-05-20T08:25:46;97708.97;;;19.54;59.78
21096;BME280;10706;49.036;12.112;2023-05-20T08:28:13;97714.81;;;19.61;58.52
21096;BME280;10706;49.036;12.112;2023-05-20T08:30:38;97711.75;;;19.68;60.07
21096;BME280;10706;49.036;12.112;2023-05-20T08:33:04;97718.44;;;19.75;60.04
21096;BME280;10706;49.036;12.112;2023-05-20T08:35:30;97707.81;;;19.79;58.93
21096;BME280;10706;49.036;12.112;2023-05-20T08:37:56;97705.41;;;19.91;59.69
21096;BME280;10706;49.036;12.112;2023-05-20T08:40:22;97702.63;;;19.96;57.77
21096;BME280;10706;49.036;12.112;2023-05-20T08:42:50;97704.34;;;19.92;57.77
21096;BME280;10706;49.036;12.112;2023-05-20T08:45:19;97703.03;;;19.90;59.21
21096;BME280;10706;49.036;12.112;2023-05-20T08:47:46;97699.22;;;19.91;57.85
21096;BME280;10706;49.036;12.112;2023-05-20T08:50:13;97704.97;;;20.03;57.05
21096;BME280;10706;49.036;12.112;2023-05-20T08:52:43;97699.06;;;20.15;56.18
21096;BME280;10706;49.036;12.112;2023-05-20T08:55:37;97709.97;;;20.56;54.00
21096;BME280;10706;49.036;12.112;2023-05-20T08:58:06;97702.38;;;20.72;54.68
21096;BME280;10706;49.036;12.112;2023-05-20T09:00:32;97700.53;;;20.95;54.75
21096;BME280;10706;49.036;12.112;2023-05-20T09:02:58;97692.25;;;21.14;55.53
21096;BME280;10706;49.036;12.112;2023-05-20T09:05:25;97704.06;;;21.32;53.94
21096;BME280;10706;49.036;12.112;2023-05-20T09:07:51;97692.72;;;21.30;53.43
21096;BME280;10706;49.036;12.112;2023-05-20T09:10:18;97694.22;;;21.23;53.59
21096;BME280;10706;49.036;12.112;2023-05-20T09:12:44;97691.19;;;21.38;53.79
21096;BME280;10706;49.036;12.112;2023-05-20T09:15:10;97688.88;;;21.31;52.41
21096;BME280;10706;49.036;12.112;2023-05-20T09:17:37;97693.50;;;21.45;53.00
21096;BME280;10706;49.036;12.112;2023-05-20T09:20:08;97696.53;;;21.29;52.06
21096;BME280;10706;49.036;12.112;2023-05-20T09:22:35;97684.72;;;21.48;53.02
21096;BME280;10706;49.036;12.112;2023-05-20T09:25:02;97686.47;;;21.66;50.58
21096;BME280;10706;49.036;12.112;2023-05-20T09:27:27;97687.75;;;21.69;51.61
21096;BME280;10706;49.036;12.112;2023-05-20T09:29:53;97687.50;;;21.57;51.18
21096;BME280;10706;49.036;12.112;2023-05-20T09:32:20;97683.38;;;21.59;51.13
21096;BME280;10706;49.036;12.112;2023-05-20T09:34:49;97678.94;;;21.63;50.91
21096;BME280;10706;49.036;12.112;2023-05-20T09:37:17;97678.31;;;21.66;51.78
21096;BME280;10706;49.036;12.112;2023-05-20T09:39:59;97674.97;;;21.69;52.83
21096;BME280;10706;49.036;12.112;2023-05-20T09:42:30;97667.75;;;21.87;51.71
21096;BME280;10706;49.036;12.112;2023-05-20T09:45:00;97668.72;;;21.91;52.25
21096;BME280;10706;49.036;12.112;2023-05-20T09:47:26;97665.75;;;22.02;51.54
21096;BME280;10706;49.036;12.112;2023-05-20T09:49:52;97654.72;;;22.38;51.52
21096;BME280;10706;49.036;12.112;2023-05-20T09:52:19;97654.00;;;22.24;51.75
21096;BME280;10706;49.036;12.112;2023-05-20T09:54:45;97650.16;;;22.56;52.26
21096;BME280;10706;49.036;12.112;2023-05-20T09:57:12;97658.69;;;22.72;52.93
21096;BME280;10706;49.036;12.112;2023-05-20T09:59:39;97656.16;;;22.93;50.93
21096;BME280;10706;49.036;12.112;2023-05-20T10:02:06;97650.38;;;22.86;50.75
21096;BME280;10706;49.036;12.112;2023-05-20T10:04:35;97641.72;;;22.75;52.38
21096;BME280;10706;49.036;12.112;2023-05-20T10:07:40;97639.94;;;22.62;51.99
21096;BME280;10706;49.036;12.112;2023-05-20T10:11:02;97654.47;;;22.57;48.54
21096;BME280;10706;49.036;12.112;2023-05-20T10:14:02;97637.53;;;22.60;48.78
21096;BME280;10706;49.036;12.112;2023-05-20T10:17:23;97649.91;;;22.75;48.73
21096;BME280;10706;49.036;12.112;2023-05-20T10:19:45;97640.41;;;22.73;47.73
21096;BME280;10706;49.036;12.112;2023-05-20T10:22:11;97639.25;;;22.47;46.08
21096;BME280;10706;49.036;12.112;2023-05-20T10:24:42;97644.66;;;22.39;46.63
21096;BME280;10706;49.036;12.112;2023-05-20T10:27:11;97644.44;;;22.75;47.20
21096;BME280;10706;49.036;12.112;2023-05-20T10:29:44;97636.13;;;22.89;46.57
21096;BME280;10706;49.036;12.112;2023-05-20T10:32:25;97638.69;;;23.03;44.81
21096;BME280;10706;49.036;12.112;2023-05-20T10:34:51;97633.44;;;22.98;43.51
21096;BME280;10706;49.036;12.112;2023-05-20T10:37:28;97638.53;;;22.90;43.81
21096;BME280;10706;49.036;12.112;2023-05-20T10:40:11;97631.53;;;23.16;44.46
21096;BME280;10706;49.036;12.112;2023-05-20T10:42:38;97632.97;;;23.48;44.61
21096;BME280;10706;49.036;12.112;2023-05-20T10:45:06;97630.69;;;23.76;42.20
21096;BME280;10706;49.036;12.112;2023-05-20T10:47:32;97629.84;;;24.02;42.33
21096;BME280;10706;49.036;12.112;2023-05-20T10:49:58;97630.63;;;24.02;43.76
21096;BME280;10706;49.036;12.112;2023-05-20T10:52:25;97626.03;;;23.85;43.16
21096;BME280;10706;49.036;12.112;2023-05-20T10:55:24;97623.31;;;23.59;41.84
21096;BME280;10706;49.036;12.112;2023-05-20T10:57:51;97619.69;;;23.20;42.59
21096;BME280;10706;49.036;12.112;2023-05-20T11:00:17;97625.09;;;23.03;44.19
21096;BME280;10706;49.036;12.112;2023-05-20T11:02:44;97611.84;;;23.19;44.00
21096;BME280;10706;49.036;12.112;2023-05-20T11:05:11;97617.88;;;23.59;44.65
21096;BME280;10706;49.036;12.112;2023-05-20T11:07:38;97610.63;;;23.90;43.09
21096;BME280;10706;49.036;12.112;2023-05-20T11:10:08;97618.91;;;24.11;42.50
21096;BME280;10706;49.036;12.112;2023-05-20T11:12:34;97615.00;;;24.20;41.20
21096;BME280;10706;49.036;12.112;2023-05-20T11:15:00;97620.75;;;24.28;42.18
21096;BME280;10706;49.036;12.112;2023-05-20T11:17:27;97603.09;;;23.86;40.88
21096;BME280;10706;49.036;12.112;2023-05-20T11:19:52;97598.63;;;23.64;41.23
21096;BME280;10706;49.036;12.112;2023-05-20T11:22:18;97601.03;;;23.57;43.12
21096;BME280;10706;49.036;12.112;2023-05-20T11:24:45;97598.59;;;23.73;41.20
21096;BME280;10706;49.036;12.112;2023-05-20T11:27:10;97597.41;;;24.00;40.51
21096;BME280;10706;49.036;12.112;2023-05-20T11:29:37;97595.25;;;24.23;40.93
21096;BME280;10706;49.036;12.112;2023-05-20T11:32:04;97589.44;;;24.63;37.97
21096;BME280;10706;49.036;12.112;2023-05-20T11:34:35;97598.38;;;24.94;39.96
21096;BME280;10706;49.036;12.112;2023-05-20T11:37:05;97599.59;;;24.84;37.46
21096;BME280;10706;49.036;12.112;2023-05-20T11:39:32;97604.97;;;24.42;38.49
21096;BME280;10706;49.036;12.112;2023-05-20T11:41:58;97610.66;;;24.58;40.84
21096;BME280;10706;49.036;12.112;2023-05-20T11:44:24;97598.94;;;24.87;40.70
21096;BME280;10706;49.036;12.112;2023-05-20T11:46:50;97594.59;;;24.86;37.32
21096;BME280;10706;49.036;12.112;2023-05-20T11:49:16;97595.56;;;25.45;37.30
21096;BME280;10706;49.036;12.112;2023-05-20T11:51:43;97588.00;;;26.45;35.80
21096;BME280;10706;49.036;12.112;2023-05-20T11:54:09;97586.13;;;27.27;35.33
21096;BME280;10706;49.036;12.112;2023-05-20T11:56:37;97595.53;;;27.54;33.39
21096;BME280;10706;49.036;12.112;2023-05-20T11:59:05;97582.13;;;26.84;33.51
21096;BME280;10706;49.036;12.112;2023-05-20T12:01:38;97581.72;;;26.69;34.60
21096;BME280;10706;49.036;12.112;2023-05-20T12:04:11;97584.47;;;26.08;34.49
21096;BME280;10706;49.036;12.112;2023-05-20T12:06:40;97584.63;;;25.78;35.45
21096;BME280;10706;49.036;12.112;2023-05-20T12:09:07;97579.78;;;26.08;34.89
21096;BME280;10706;49.036;12.112;2023-05-20T12:11:34;97581.16;;;26.02;34.86
21096;BME280;10706;49.036;12.112;2023-05-20T12:14:05;97577.50;;;26.23;37.65
21096;BME280;10706;49.036;12.112;2023-05-20T12:16:32;97575.78;;;26.06;36.58
21096;BME280;10706;49.036;12.112;2023-05-20T12:18:59;97583.44;;;25.12;37.87
21096;BME280;10706;49.036;12.112;2023-05-20T12:21:25;97580.19;;;24.77;38.40
21096;BME280;10706;49.036;12.112;2023-05-20T12:23:51;97584.19;;;24.79;38.16
21096;BME280;10706;49.036;12.112;2023-05-20T12:26:26;97579.91;;;24.70;37.65
21096;BME280;10706;49.036;12.112;2023-05-20T12:28:53;97575.00;;;24.24;39.52
21096;BME280;10706;49.036;12.112;2023-05-20T12:31:19;97572.81;;;24.18;41.73
21096;BME280;10706;49.036;12.112;2023-05-20T12:33:45;97569.63;;;24.16;39.53
21096;BME280;10706;49.036;12.112;2023-05-20T12:36:12;97570.44;;;24.08;39.74
21096;BME280;10706;49.036;12.112;2023-05-20T12:38:38;97573.00;;;24.04;39.44
21096;BME280;10706;49.036;12.112;2023-05-20T12:41:04;97568.84;;;24.06;38.79
21096;BME280;10706;49.036;12.112;2023-05-20T12:43:29;97572.00;;;24.17;39.63
21096;BME280;10706;49.036;12.112;2023-05-20T12:45:55;97569.22;;;24.26;40.62
21096;BME280;10706;49.036;12.112;2023-05-20T12:48:21;97572.06;;;24.09;39.88
21096;BME280;10706;49.036;12.112;2023-05-20T12:50:47;97570.13;;;24.09;41.03
21096;BME280;10706;49.036;12.112;2023-05-20T12:53:13;97561.94;;;24.09;40.66
21096;BME280;10706;49.036;12.112;2023-05-20T12:55:38;97564.53;;;24.35;40.32